Augusta, Michigan
Current Conditions -  °F | °C
As of 4:53 AM on Monday 26 Jan 2015 (Local Time) from KBTL Reporting Station
Clear Clear  
Wind Chill:   Ceiling: Unl
Heat Index: 12°   Visibility: 10mi
Dew Point:   Wind: 5mph
Humidity: 80%   Direction: 360°N
Pressure: 29.93"   Gusts: NA
Location:  42.34°N, 85.35°W
Report Text: KBTL 260953Z 36004KT 10SM CLR M11/M14 A2993 RMK AO2 SLP152 T11111139
Loading
Personal Weather Stations






























Interactive Weather Map New forecast layout! Learn more

10-Day Weather Forecast

Advertisements
Track Severe Weather on mobile